Hlavní strana
METAR-TAF:

METAR-TAF

Letiště :

Trollhättan-Vänersborg, Švédsko

zeměpisná šířka: 58-19N, zeměpisná délka: 012-21E, výška: 41 m

Aktuální stav počasí

Zpráva byla vytvořena před 41 minutami, v 20:20 UTC
Jižní vítr 8 kt
Teplota 5°C
Vlhkost vzduchu 87%
Tlak 1001 hPa
Viditelnost 10 km a více
Oblačno až skoro zataženo ve výšce 3500 ft
Zataženo ve výšce 4600 ft

METAR: ESGT 122020Z 17008KT 9999 BKN035 OVC046 05/03 Q1001

Čas: 22:01 (21:01 UTC)

Předpověď počasí

Zpráva byla vytvořena před 3 hodinami a 31 minutami, v 17:30 UTC
Předpověď platná od 12 v 18 UTC do 12 v 22 UTC
Jihovýchodní vítr 10 kt
Viditelnost 10 km a více
Polojasno ve výšce 700 ft
Oblačno až skoro zataženo ve výšce 1500 ft
slabý déšť
Dočasný
od 12 v 18 UTC do 12 v 22 UTC
Oblačno až skoro zataženo ve výšce 700 ft
Oblačno až skoro zataženo ve výšce 2000 ft, Cumulonimbus.
dešťové přeháňky

TAF: ESGT 121730Z 1218/1222 14010KT 9999 -RA SCT007 BKN015 TEMPO 1218/1222 SHRA BKN007 BKN020CB

Stav a předpovědi počasí z více než 4 000 letišť (zprávy METAR a TAF).

Červené a žluté tečky na mapě představují dostupné meteorologické stanice.

Když kurzor umístíte na tečku, zobrazí se název stanice.

Pak kliknutím zobrazíte stav a předpověď počasí.

Chcete-li změnit mapu, kliknutím na zelené tlačítko se znaménkem +mapu přiblížíte, kliknutím na zelené tlačítko se znaménkem – mapu oddálíte a kliknutím na zelené šipky přejdete na sousední mapy.


METAR-TAF: